Current Weather

Sirnak

Sirnak, Turkey (LTCV)

Report from: Friday, August 19, 2022 3:50 AM UTC
Current time: Friday, August 19, 2022 5:09 AM UTC

Nearby weather
Weather history
Weather forecast

Temperature27.0°C (80.6°F)
Heat index26.6°C (79.8°F)
Dew point6.0°C (42.8°F)
Winds 5 kts (2.6 m/s, 5.8 mph) Vrb
Winds variableWinds variable from West-Southwest (240°) to Northwest (310°)
Clouds Sky clear
Altimeter29.65 in.Hg (1004 mB)
Relative humidity26 %
Density altitude1,833 ft. (559 m)
Remarks Ceiling and visibility OK
Flight conditions Visual Meteorological Conditions
Raw dataLTCV 190350Z 27005KT 240V310 CAVOK 27/06 Q1004
An unhandled exception has occurred. See browser dev tools for details. Reload 🗙